sensor_id;sensor_type;location;lat;lon;timestamp;P1;durP1;ratioP1;P2;durP2;ratioP2
41799;SDS011;27468;47.460;19.034;2022-12-24T00:01:02;119.47;;;36.90;;
41799;SDS011;27468;47.460;19.034;2022-12-24T00:03:28;119.72;;;36.50;;
41799;SDS011;27468;47.460;19.034;2022-12-24T00:05:53;111.72;;;36.95;;
41799;SDS011;27468;47.460;19.034;2022-12-24T00:08:19;109.32;;;37.05;;
41799;SDS011;27468;47.460;19.034;2022-12-24T00:10:49;105.00;;;34.90;;
41799;SDS011;27468;47.460;19.034;2022-12-24T00:13:15;106.05;;;35.60;;
41799;SDS011;27468;47.460;19.034;2022-12-24T00:15:41;117.80;;;36.15;;
41799;SDS011;27468;47.460;19.034;2022-12-24T00:18:06;111.93;;;36.30;;
41799;SDS011;27468;47.460;19.034;2022-12-24T00:20:32;105.88;;;35.60;;
41799;SDS011;27468;47.460;19.034;2022-12-24T00:22:57;124.10;;;37.70;;
41799;SDS011;27468;47.460;19.034;2022-12-24T00:25:22;127.05;;;37.10;;
41799;SDS011;27468;47.460;19.034;2022-12-24T00:27:48;115.65;;;37.50;;
41799;SDS011;27468;47.460;19.034;2022-12-24T00:30:13;134.13;;;34.60;;
41799;SDS011;27468;47.460;19.034;2022-12-24T00:32:39;110.65;;;37.65;;
41799;SDS011;27468;47.460;19.034;2022-12-24T00:35:04;132.07;;;35.53;;
41799;SDS011;27468;47.460;19.034;2022-12-24T00:37:30;107.90;;;35.70;;
41799;SDS011;27468;47.460;19.034;2022-12-24T00:39:55;141.43;;;38.78;;
41799;SDS011;27468;47.460;19.034;2022-12-24T00:42:21;123.57;;;37.65;;
41799;SDS011;27468;47.460;19.034;2022-12-24T00:44:46;116.43;;;36.03;;
41799;SDS011;27468;47.460;19.034;2022-12-24T00:47:12;121.22;;;37.05;;
41799;SDS011;27468;47.460;19.034;2022-12-24T00:49:37;105.80;;;35.78;;
41799;SDS011;27468;47.460;19.034;2022-12-24T00:52:03;113.82;;;37.30;;
41799;SDS011;27468;47.460;19.034;2022-12-24T00:54:28;115.15;;;38.15;;
41799;SDS011;27468;47.460;19.034;2022-12-24T00:56:54;93.57;;;33.95;;
41799;SDS011;27468;47.460;19.034;2022-12-24T00:59:19;116.13;;;36.65;;
41799;SDS011;27468;47.460;19.034;2022-12-24T01:01:45;109.05;;;36.08;;
41799;SDS011;27468;47.460;19.034;2022-12-24T01:04:10;105.97;;;37.15;;
41799;SDS011;27468;47.460;19.034;2022-12-24T01:06:54;114.00;;;35.97;;
41799;SDS011;27468;47.460;19.034;2022-12-24T01:09:20;111.47;;;35.17;;
41799;SDS011;27468;47.460;19.034;2022-12-24T01:11:45;110.10;;;37.50;;
41799;SDS011;27468;47.460;19.034;2022-12-24T01:14:11;108.32;;;35.72;;
41799;SDS011;27468;47.460;19.034;2022-12-24T01:16:36;116.40;;;35.90;;
41799;SDS011;27468;47.460;19.034;2022-12-24T01:19:02;103.18;;;36.80;;
41799;SDS011;27468;47.460;19.034;2022-12-24T01:21:27;105.53;;;35.17;;
41799;SDS011;27468;47.460;19.034;2022-12-24T01:23:53;108.47;;;36.13;;
41799;SDS011;27468;47.460;19.034;2022-12-24T01:26:18;115.68;;;35.95;;
41799;SDS011;27468;47.460;19.034;2022-12-24T01:28:43;104.15;;;34.95;;
41799;SDS011;27468;47.460;19.034;2022-12-24T01:31:13;103.47;;;34.28;;
41799;SDS011;27468;47.460;19.034;2022-12-24T01:33:39;94.20;;;32.30;;
41799;SDS011;27468;47.460;19.034;2022-12-24T01:36:05;96.32;;;34.28;;
41799;SDS011;27468;47.460;19.034;2022-12-24T01:38:31;94.68;;;33.47;;
41799;SDS011;27468;47.460;19.034;2022-12-24T01:40:56;99.82;;;33.03;;
41799;SDS011;27468;47.460;19.034;2022-12-24T01:43:41;95.80;;;33.70;;
41799;SDS011;27468;47.460;19.034;2022-12-24T01:46:08;95.75;;;32.90;;
41799;SDS011;27468;47.460;19.034;2022-12-24T01:54:15;100.13;;;34.60;;
41799;SDS011;27468;47.460;19.034;2022-12-24T01:56:48;99.25;;;33.20;;
41799;SDS011;27468;47.460;19.034;2022-12-24T01:59:22;100.25;;;33.80;;
41799;SDS011;27468;47.460;19.034;2022-12-24T02:01:49;100.43;;;35.05;;
41799;SDS011;27468;47.460;19.034;2022-12-24T02:07:00;93.20;;;32.90;;
41799;SDS011;27468;47.460;19.034;2022-12-24T02:09:25;92.97;;;33.70;;
41799;SDS011;27468;47.460;19.034;2022-12-24T02:11:51;92.97;;;32.83;;
41799;SDS011;27468;47.460;19.034;2022-12-24T02:14:17;91.55;;;32.97;;
41799;SDS011;27468;47.460;19.034;2022-12-24T02:17:00;95.40;;;33.22;;
41799;SDS011;27468;47.460;19.034;2022-12-24T02:30:37;86.38;;;34.08;;
41799;SDS011;27468;47.460;19.034;2022-12-24T02:35:33;81.68;;;31.17;;
41799;SDS011;27468;47.460;19.034;2022-12-24T02:38:02;84.55;;;34.25;;
41799;SDS011;27468;47.460;19.034;2022-12-24T02:40:49;79.20;;;31.25;;
41799;SDS011;27468;47.460;19.034;2022-12-24T02:43:21;86.15;;;34.45;;
41799;SDS011;27468;47.460;19.034;2022-12-24T02:45:55;83.00;;;34.17;;
41799;SDS011;27468;47.460;19.034;2022-12-24T02:48:23;86.13;;;34.70;;
41799;SDS011;27468;47.460;19.034;2022-12-24T02:50:55;79.03;;;33.70;;
41799;SDS011;27468;47.460;19.034;2022-12-24T02:53:21;84.47;;;35.10;;
41799;SDS011;27468;47.460;19.034;2022-12-24T02:55:52;77.90;;;32.22;;
41799;SDS011;27468;47.460;19.034;2022-12-24T02:58:36;79.35;;;33.33;;
41799;SDS011;27468;47.460;19.034;2022-12-24T03:11:36;81.23;;;33.73;;
41799;SDS011;27468;47.460;19.034;2022-12-24T03:14:05;80.43;;;33.65;;
41799;SDS011;27468;47.460;19.034;2022-12-24T03:16:31;79.70;;;34.13;;
41799;SDS011;27468;47.460;19.034;2022-12-24T03:18:56;75.13;;;32.55;;
41799;SDS011;27468;47.460;19.034;2022-12-24T03:21:30;79.68;;;33.17;;
41799;SDS011;27468;47.460;19.034;2022-12-24T03:23:58;76.78;;;32.35;;
41799;SDS011;27468;47.460;19.034;2022-12-24T03:26:24;82.72;;;34.95;;
41799;SDS011;27468;47.460;19.034;2022-12-24T03:28:53;92.85;;;35.65;;
41799;SDS011;27468;47.460;19.034;2022-12-24T03:31:18;90.45;;;37.00;;
41799;SDS011;27468;47.460;19.034;2022-12-24T03:33:45;98.47;;;37.33;;
41799;SDS011;27468;47.460;19.034;2022-12-24T03:36:11;102.35;;;38.40;;
41799;SDS011;27468;47.460;19.034;2022-12-24T03:38:36;94.57;;;37.33;;
41799;SDS011;27468;47.460;19.034;2022-12-24T03:41:02;100.70;;;37.95;;
41799;SDS011;27468;47.460;19.034;2022-12-24T03:43:27;101.93;;;37.92;;
41799;SDS011;27468;47.460;19.034;2022-12-24T03:45:53;98.38;;;37.72;;
41799;SDS011;27468;47.460;19.034;2022-12-24T03:48:18;94.13;;;37.28;;
41799;SDS011;27468;47.460;19.034;2022-12-24T03:50:44;91.53;;;36.88;;
41799;SDS011;27468;47.460;19.034;2022-12-24T03:53:09;97.63;;;37.78;;
41799;SDS011;27468;47.460;19.034;2022-12-24T03:55:34;90.97;;;37.83;;
41799;SDS011;27468;47.460;19.034;2022-12-24T03:58:00;88.45;;;37.42;;
41799;SDS011;27468;47.460;19.034;2022-12-24T04:00:25;88.68;;;38.15;;
41799;SDS011;27468;47.460;19.034;2022-12-24T04:02:52;96.63;;;37.90;;
41799;SDS011;27468;47.460;19.034;2022-12-24T04:05:18;98.95;;;39.33;;
41799;SDS011;27468;47.460;19.034;2022-12-24T04:07:44;98.53;;;37.88;;
41799;SDS011;27468;47.460;19.034;2022-12-24T04:10:10;92.28;;;38.90;;
41799;SDS011;27468;47.460;19.034;2022-12-24T04:12:37;96.13;;;38.47;;
41799;SDS011;27468;47.460;19.034;2022-12-24T04:15:03;96.13;;;39.13;;
41799;SDS011;27468;47.460;19.034;2022-12-24T04:17:29;98.13;;;40.08;;
41799;SDS011;27468;47.460;19.034;2022-12-24T04:19:54;99.03;;;40.08;;
41799;SDS011;27468;47.460;19.034;2022-12-24T04:22:19;102.25;;;41.42;;
41799;SDS011;27468;47.460;19.034;2022-12-24T04:24:45;100.20;;;39.25;;
41799;SDS011;27468;47.460;19.034;2022-12-24T04:27:12;98.20;;;40.72;;
41799;SDS011;27468;47.460;19.034;2022-12-24T04:29:38;97.45;;;39.63;;
41799;SDS011;27468;47.460;19.034;2022-12-24T04:32:03;101.72;;;40.03;;
41799;SDS011;27468;47.460;19.034;2022-12-24T04:34:29;104.22;;;41.72;;
41799;SDS011;27468;47.460;19.034;2022-12-24T04:36:54;101.93;;;40.95;;
41799;SDS011;27468;47.460;19.034;2022-12-24T04:39:20;101.10;;;40.80;;
41799;SDS011;27468;47.460;19.034;2022-12-24T04:41:45;94.60;;;40.15;;
41799;SDS011;27468;47.460;19.034;2022-12-24T04:44:10;101.45;;;40.38;;
41799;SDS011;27468;47.460;19.034;2022-12-24T04:46:36;99.97;;;39.08;;
41799;SDS011;27468;47.460;19.034;2022-12-24T04:49:01;99.90;;;39.97;;
41799;SDS011;27468;47.460;19.034;2022-12-24T04:51:27;97.90;;;39.60;;
41799;SDS011;27468;47.460;19.034;2022-12-24T04:53:53;96.88;;;39.80;;
41799;SDS011;27468;47.460;19.034;2022-12-24T04:56:20;106.57;;;41.60;;
41799;SDS011;27468;47.460;19.034;2022-12-24T04:58:48;100.25;;;42.13;;
41799;SDS011;27468;47.460;19.034;2022-12-24T05:01:18;97.88;;;41.15;;
41799;SDS011;27468;47.460;19.034;2022-12-24T05:03:48;105.20;;;41.55;;
41799;SDS011;27468;47.460;19.034;2022-12-24T05:06:15;97.35;;;41.38;;
41799;SDS011;27468;47.460;19.034;2022-12-24T05:08:42;101.32;;;41.13;;
41799;SDS011;27468;47.460;19.034;2022-12-24T05:11:08;102.72;;;40.70;;
41799;SDS011;27468;47.460;19.034;2022-12-24T05:13:38;91.40;;;40.50;;
41799;SDS011;27468;47.460;19.034;2022-12-24T05:16:05;93.18;;;40.80;;
41799;SDS011;27468;47.460;19.034;2022-12-24T05:18:30;97.10;;;39.78;;
41799;SDS011;27468;47.460;19.034;2022-12-24T05:20:55;91.30;;;39.28;;
41799;SDS011;27468;47.460;19.034;2022-12-24T05:23:22;99.30;;;41.72;;
41799;SDS011;27468;47.460;19.034;2022-12-24T05:26:14;90.65;;;39.00;;
41799;SDS011;27468;47.460;19.034;2022-12-24T05:28:51;90.35;;;38.40;;
41799;SDS011;27468;47.460;19.034;2022-12-24T05:31:18;92.90;;;39.33;;
41799;SDS011;27468;47.460;19.034;2022-12-24T05:33:44;92.05;;;40.63;;
41799;SDS011;27468;47.460;19.034;2022-12-24T05:36:09;89.50;;;39.67;;
41799;SDS011;27468;47.460;19.034;2022-12-24T05:38:35;85.68;;;38.47;;
41799;SDS011;27468;47.460;19.034;2022-12-24T05:41:01;87.40;;;39.50;;
41799;SDS011;27468;47.460;19.034;2022-12-24T05:43:26;85.47;;;39.78;;
41799;SDS011;27468;47.460;19.034;2022-12-24T05:45:56;84.55;;;38.50;;
41799;SDS011;27468;47.460;19.034;2022-12-24T05:48:25;84.10;;;38.33;;
41799;SDS011;27468;47.460;19.034;2022-12-24T05:50:51;81.95;;;38.33;;
41799;SDS011;27468;47.460;19.034;2022-12-24T05:53:17;85.10;;;39.42;;
41799;SDS011;27468;47.460;19.034;2022-12-24T05:55:42;79.72;;;38.20;;
41799;SDS011;27468;47.460;19.034;2022-12-24T05:58:08;82.20;;;39.13;;
41799;SDS011;27468;47.460;19.034;2022-12-24T06:00:33;82.22;;;38.47;;
41799;SDS011;27468;47.460;19.034;2022-12-24T06:02:59;87.50;;;38.70;;
41799;SDS011;27468;47.460;19.034;2022-12-24T06:05:24;81.38;;;38.70;;
41799;SDS011;27468;47.460;19.034;2022-12-24T06:07:49;86.65;;;39.45;;
41799;SDS011;27468;47.460;19.034;2022-12-24T06:10:15;88.85;;;39.75;;
41799;SDS011;27468;47.460;19.034;2022-12-24T06:12:40;85.88;;;39.83;;
41799;SDS011;27468;47.460;19.034;2022-12-24T06:15:06;91.03;;;40.25;;
41799;SDS011;27468;47.460;19.034;2022-12-24T06:17:32;87.22;;;40.38;;
41799;SDS011;27468;47.460;19.034;2022-12-24T06:19:57;86.35;;;40.78;;
41799;SDS011;27468;47.460;19.034;2022-12-24T06:22:23;90.88;;;40.33;;
41799;SDS011;27468;47.460;19.034;2022-12-24T06:24:48;85.05;;;39.33;;
41799;SDS011;27468;47.460;19.034;2022-12-24T06:27:13;92.22;;;39.70;;
41799;SDS011;27468;47.460;19.034;2022-12-24T06:29:39;94.38;;;40.10;;
41799;SDS011;27468;47.460;19.034;2022-12-24T06:32:04;85.43;;;38.40;;
41799;SDS011;27468;47.460;19.034;2022-12-24T06:34:30;84.50;;;37.10;;
41799;SDS011;27468;47.460;19.034;2022-12-24T06:36:55;90.03;;;38.42;;
41799;SDS011;27468;47.460;19.034;2022-12-24T06:39:20;86.68;;;37.42;;
41799;SDS011;27468;47.460;19.034;2022-12-24T06:41:46;85.15;;;37.70;;
41799;SDS011;27468;47.460;19.034;2022-12-24T06:44:11;89.38;;;38.00;;
41799;SDS011;27468;47.460;19.034;2022-12-24T06:46:37;82.25;;;35.65;;
41799;SDS011;27468;47.460;19.034;2022-12-24T06:49:02;81.22;;;34.67;;
41799;SDS011;27468;47.460;19.034;2022-12-24T06:51:27;82.95;;;35.80;;
41799;SDS011;27468;47.460;19.034;2022-12-24T06:53:53;77.22;;;35.10;;
41799;SDS011;27468;47.460;19.034;2022-12-24T06:56:19;82.40;;;35.95;;
41799;SDS011;27468;47.460;19.034;2022-12-24T06:58:45;73.88;;;34.35;;
41799;SDS011;27468;47.460;19.034;2022-12-24T07:01:12;70.80;;;32.78;;
41799;SDS011;27468;47.460;19.034;2022-12-24T07:03:39;76.03;;;32.92;;
41799;SDS011;27468;47.460;19.034;2022-12-24T07:06:05;71.30;;;32.92;;
41799;SDS011;27468;47.460;19.034;2022-12-24T07:08:31;69.70;;;33.40;;
41799;SDS011;27468;47.460;19.034;2022-12-24T07:10:58;69.05;;;32.22;;
41799;SDS011;27468;47.460;19.034;2022-12-24T07:13:24;67.32;;;33.15;;
41799;SDS011;27468;47.460;19.034;2022-12-24T07:15:56;65.75;;;31.45;;
41799;SDS011;27468;47.460;19.034;2022-12-24T07:18:23;63.15;;;30.60;;
41799;SDS011;27468;47.460;19.034;2022-12-24T07:20:48;66.05;;;30.17;;
41799;SDS011;27468;47.460;19.034;2022-12-24T07:23:14;59.30;;;29.90;;
41799;SDS011;27468;47.460;19.034;2022-12-24T07:25:41;54.97;;;28.67;;
41799;SDS011;27468;47.460;19.034;2022-12-24T07:28:07;61.15;;;30.10;;
41799;SDS011;27468;47.460;19.034;2022-12-24T07:30:32;55.75;;;28.23;;
41799;SDS011;27468;47.460;19.034;2022-12-24T07:32:58;55.75;;;28.83;;
41799;SDS011;27468;47.460;19.034;2022-12-24T07:35:23;52.75;;;28.30;;
41799;SDS011;27468;47.460;19.034;2022-12-24T07:37:48;54.60;;;27.35;;
41799;SDS011;27468;47.460;19.034;2022-12-24T07:40:14;56.95;;;29.63;;
41799;SDS011;27468;47.460;19.034;2022-12-24T07:42:39;55.10;;;29.77;;
41799;SDS011;27468;47.460;19.034;2022-12-24T07:45:05;55.97;;;28.35;;
41799;SDS011;27468;47.460;19.034;2022-12-24T07:47:31;55.05;;;28.20;;
41799;SDS011;27468;47.460;19.034;2022-12-24T07:49:56;52.55;;;27.98;;
41799;SDS011;27468;47.460;19.034;2022-12-24T07:52:22;53.63;;;28.52;;
41799;SDS011;27468;47.460;19.034;2022-12-24T07:54:47;59.30;;;28.45;;
41799;SDS011;27468;47.460;19.034;2022-12-24T07:57:13;52.78;;;28.38;;
41799;SDS011;27468;47.460;19.034;2022-12-24T07:59:38;54.97;;;30.58;;
41799;SDS011;27468;47.460;19.034;2022-12-24T08:02:03;59.90;;;30.52;;
41799;SDS011;27468;47.460;19.034;2022-12-24T08:04:32;59.78;;;30.90;;
41799;SDS011;27468;47.460;19.034;2022-12-24T08:07:00;60.50;;;31.38;;
41799;SDS011;27468;47.460;19.034;2022-12-24T08:09:26;59.33;;;31.50;;
41799;SDS011;27468;47.460;19.034;2022-12-24T08:11:51;56.88;;;30.98;;
41799;SDS011;27468;47.460;19.034;2022-12-24T08:14:17;53.30;;;28.67;;
41799;SDS011;27468;47.460;19.034;2022-12-24T08:16:43;56.67;;;30.20;;
41799;SDS011;27468;47.460;19.034;2022-12-24T08:19:08;56.20;;;28.55;;
41799;SDS011;27468;47.460;19.034;2022-12-24T08:21:33;53.63;;;28.30;;
41799;SDS011;27468;47.460;19.034;2022-12-24T08:23:59;50.08;;;27.95;;
41799;SDS011;27468;47.460;19.034;2022-12-24T08:26:24;49.38;;;27.45;;
41799;SDS011;27468;47.460;19.034;2022-12-24T08:28:49;45.90;;;25.55;;
41799;SDS011;27468;47.460;19.034;2022-12-24T08:31:15;39.78;;;24.38;;
41799;SDS011;27468;47.460;19.034;2022-12-24T08:33:40;48.45;;;25.75;;
41799;SDS011;27468;47.460;19.034;2022-12-24T08:36:06;52.78;;;28.38;;
41799;SDS011;27468;47.460;19.034;2022-12-24T08:38:31;26.33;;;14.65;;
41799;SDS011;27468;47.460;19.034;2022-12-24T08:40:57;16.02;;;9.95;;
41799;SDS011;27468;47.460;19.034;2022-12-24T08:43:22;10.43;;;6.15;;
41799;SDS011;27468;47.460;19.034;2022-12-24T08:45:49;7.53;;;4.75;;
41799;SDS011;27468;47.460;19.034;2022-12-24T08:48:15;6.43;;;4.65;;
41799;SDS011;27468;47.460;19.034;2022-12-24T08:50:41;5.55;;;3.50;;
41799;SDS011;27468;47.460;19.034;2022-12-24T08:53:07;6.28;;;3.20;;
41799;SDS011;27468;47.460;19.034;2022-12-24T08:55:34;5.18;;;2.78;;
41799;SDS011;27468;47.460;19.034;2022-12-24T08:57:59;6.43;;;3.60;;
41799;SDS011;27468;47.460;19.034;2022-12-24T09:00:25;5.60;;;2.70;;
41799;SDS011;27468;47.460;19.034;2022-12-24T09:02:51;5.50;;;3.00;;
41799;SDS011;27468;47.460;19.034;2022-12-24T09:05:16;3.85;;;2.65;;
41799;SDS011;27468;47.460;19.034;2022-12-24T09:07:42;4.43;;;2.80;;
41799;SDS011;27468;47.460;19.034;2022-12-24T09:10:08;4.32;;;3.00;;
41799;SDS011;27468;47.460;19.034;2022-12-24T09:12:34;6.78;;;4.15;;
41799;SDS011;27468;47.460;19.034;2022-12-24T09:15:00;6.50;;;4.53;;
41799;SDS011;27468;47.460;19.034;2022-12-24T09:17:25;6.43;;;3.95;;
41799;SDS011;27468;47.460;19.034;2022-12-24T09:19:51;7.43;;;4.53;;
41799;SDS011;27468;47.460;19.034;2022-12-24T09:22:16;5.38;;;3.75;;
41799;SDS011;27468;47.460;19.034;2022-12-24T09:24:41;6.70;;;3.20;;
41799;SDS011;27468;47.460;19.034;2022-12-24T09:27:07;5.53;;;3.30;;
41799;SDS011;27468;47.460;19.034;2022-12-24T09:29:32;6.45;;;3.30;;
41799;SDS011;27468;47.460;19.034;2022-12-24T09:31:58;4.93;;;3.30;;
41799;SDS011;27468;47.460;19.034;2022-12-24T09:34:24;5.50;;;3.60;;
41799;SDS011;27468;47.460;19.034;2022-12-24T09:36:49;5.60;;;3.15;;
41799;SDS011;27468;47.460;19.034;2022-12-24T09:39:15;4.15;;;2.55;;
41799;SDS011;27468;47.460;19.034;2022-12-24T09:49:48;3.03;;;2.10;;
41799;SDS011;27468;47.460;19.034;2022-12-24T09:52:28;3.47;;;2.20;;
41799;SDS011;27468;47.460;19.034;2022-12-24T09:55:19;5.07;;;2.22;;
41799;SDS011;27468;47.460;19.034;2022-12-24T09:57:52;3.83;;;2.05;;
41799;SDS011;27468;47.460;19.034;2022-12-24T10:00:21;4.28;;;1.95;;
41799;SDS011;27468;47.460;19.034;2022-12-24T10:02:49;3.83;;;1.90;;
41799;SDS011;27468;47.460;19.034;2022-12-24T10:05:16;3.03;;;1.80;;
41799;SDS011;27468;47.460;19.034;2022-12-24T10:07:51;3.35;;;2.00;;
41799;SDS011;27468;47.460;19.034;2022-12-24T10:15:49;3.30;;;1.90;;
41799;SDS011;27468;47.460;19.034;2022-12-24T10:21:22;3.75;;;1.55;;
41799;SDS011;27468;47.460;19.034;2022-12-24T10:23:59;3.63;;;1.40;;
41799;SDS011;27468;47.460;19.034;2022-12-24T10:29:02;3.53;;;1.95;;
41799;SDS011;27468;47.460;19.034;2022-12-24T10:31:39;3.13;;;1.50;;
41799;SDS011;27468;47.460;19.034;2022-12-24T10:34:14;2.58;;;1.42;;
41799;SDS011;27468;47.460;19.034;2022-12-24T10:36:45;2.75;;;1.70;;
41799;SDS011;27468;47.460;19.034;2022-12-24T10:39:17;1.70;;;1.10;;
41799;SDS011;27468;47.460;19.034;2022-12-24T10:41:51;2.65;;;1.73;;
41799;SDS011;27468;47.460;19.034;2022-12-24T10:44:20;2.47;;;1.50;;
41799;SDS011;27468;47.460;19.034;2022-12-24T10:46:48;3.65;;;1.70;;
41799;SDS011;27468;47.460;19.034;2022-12-24T10:52:18;3.95;;;2.25;;
41799;SDS011;27468;47.460;19.034;2022-12-24T10:55:03;4.18;;;2.08;;
41799;SDS011;27468;47.460;19.034;2022-12-24T10:57:29;3.30;;;1.92;;
41799;SDS011;27468;47.460;19.034;2022-12-24T10:59:55;3.05;;;1.60;;
41799;SDS011;27468;47.460;19.034;2022-12-24T11:05:00;3.70;;;2.17;;
41799;SDS011;27468;47.460;19.034;2022-12-24T11:07:27;3.35;;;2.10;;
41799;SDS011;27468;47.460;19.034;2022-12-24T11:09:55;4.75;;;2.72;;
41799;SDS011;27468;47.460;19.034;2022-12-24T11:12:25;3.28;;;1.40;;
41799;SDS011;27468;47.460;19.034;2022-12-24T11:14:58;3.45;;;1.50;;
41799;SDS011;27468;47.460;19.034;2022-12-24T11:17:31;3.20;;;1.85;;
41799;SDS011;27468;47.460;19.034;2022-12-24T11:19:57;2.60;;;1.42;;
41799;SDS011;27468;47.460;19.034;2022-12-24T11:22:27;3.85;;;1.48;;
41799;SDS011;27468;47.460;19.034;2022-12-24T11:25:10;1.98;;;1.15;;
41799;SDS011;27468;47.460;19.034;2022-12-24T11:27:45;3.30;;;1.10;;
41799;SDS011;27468;47.460;19.034;2022-12-24T11:35:30;3.38;;;1.15;;
41799;SDS011;27468;47.460;19.034;2022-12-24T11:40:32;1.25;;;0.60;;
41799;SDS011;27468;47.460;19.034;2022-12-24T11:43:00;4.05;;;1.52;;
41799;SDS011;27468;47.460;19.034;2022-12-24T11:45:29;3.25;;;0.80;;
41799;SDS011;27468;47.460;19.034;2022-12-24T11:47:57;4.32;;;0.90;;
41799;SDS011;27468;47.460;19.034;2022-12-24T12:01:17;3.22;;;0.80;;
41799;SDS011;27468;47.460;19.034;2022-12-24T12:03:52;1.92;;;1.25;;
41799;SDS011;27468;47.460;19.034;2022-12-24T12:06:27;4.00;;;1.10;;
41799;SDS011;27468;47.460;19.034;2022-12-24T12:09:00;4.90;;;1.48;;
41799;SDS011;27468;47.460;19.034;2022-12-24T12:11:29;2.45;;;1.48;;
41799;SDS011;27468;47.460;19.034;2022-12-24T12:13:58;5.03;;;1.00;;
41799;SDS011;27468;47.460;19.034;2022-12-24T12:16:42;2.97;;;1.00;;
41799;SDS011;27468;47.460;19.034;2022-12-24T12:19:34;2.38;;;0.80;;
41799;SDS011;27468;47.460;19.034;2022-12-24T12:25:16;4.05;;;0.90;;
41799;SDS011;27468;47.460;19.034;2022-12-24T12:27:49;4.63;;;1.00;;
41799;SDS011;27468;47.460;19.034;2022-12-24T12:30:19;1.75;;;0.75;;
41799;SDS011;27468;47.460;19.034;2022-12-24T12:33:00;3.70;;;0.80;;
41799;SDS011;27468;47.460;19.034;2022-12-24T12:35:45;3.03;;;0.70;;
41799;SDS011;27468;47.460;19.034;2022-12-24T12:38:15;2.30;;;0.60;;
41799;SDS011;27468;47.460;19.034;2022-12-24T12:41:03;2.53;;;0.98;;
41799;SDS011;27468;47.460;19.034;2022-12-24T12:46:20;4.57;;;0.90;;
41799;SDS011;27468;47.460;19.034;2022-12-24T12:57:18;1.73;;;0.80;;
41799;SDS011;27468;47.460;19.034;2022-12-24T13:11:12;2.78;;;0.93;;
41799;SDS011;27468;47.460;19.034;2022-12-24T13:21:55;3.60;;;1.00;;
41799;SDS011;27468;47.460;19.034;2022-12-24T13:24:24;2.17;;;1.08;;
41799;SDS011;27468;47.460;19.034;2022-12-24T13:37:42;2.38;;;0.85;;
41799;SDS011;27468;47.460;19.034;2022-12-24T13:47:56;1.77;;;0.80;;
41799;SDS011;27468;47.460;19.034;2022-12-24T13:50:36;3.58;;;1.20;;
41799;SDS011;27468;47.460;19.034;2022-12-24T13:53:02;2.97;;;1.08;;
41799;SDS011;27468;47.460;19.034;2022-12-24T13:55:29;2.33;;;0.93;;
41799;SDS011;27468;47.460;19.034;2022-12-24T13:57:59;5.63;;;1.30;;
41799;SDS011;27468;47.460;19.034;2022-12-24T14:08:08;1.70;;;0.80;;
41799;SDS011;27468;47.460;19.034;2022-12-24T14:10:38;4.30;;;1.30;;
41799;SDS011;27468;47.460;19.034;2022-12-24T14:16:17;3.47;;;1.00;;
41799;SDS011;27468;47.460;19.034;2022-12-24T14:18:48;2.25;;;0.80;;
41799;SDS011;27468;47.460;19.034;2022-12-24T14:21:36;2.50;;;1.30;;
41799;SDS011;27468;47.460;19.034;2022-12-24T14:24:16;3.55;;;1.13;;
41799;SDS011;27468;47.460;19.034;2022-12-24T14:26:50;3.05;;;1.05;;
41799;SDS011;27468;47.460;19.034;2022-12-24T14:29:25;2.67;;;1.00;;
41799;SDS011;27468;47.460;19.034;2022-12-24T14:31:52;2.25;;;1.05;;
41799;SDS011;27468;47.460;19.034;2022-12-24T14:34:19;3.03;;;0.98;;
41799;SDS011;27468;47.460;19.034;2022-12-24T14:36:45;2.58;;;0.82;;
41799;SDS011;27468;47.460;19.034;2022-12-24T14:39:20;3.05;;;0.90;;
41799;SDS011;27468;47.460;19.034;2022-12-24T14:42:06;4.70;;;1.13;;
41799;SDS011;27468;47.460;19.034;2022-12-24T14:52:58;2.38;;;1.10;;
41799;SDS011;27468;47.460;19.034;2022-12-24T14:55:45;3.38;;;1.23;;
41799;SDS011;27468;47.460;19.034;2022-12-24T14:58:35;3.08;;;1.10;;
41799;SDS011;27468;47.460;19.034;2022-12-24T15:01:02;2.72;;;1.10;;
41799;SDS011;27468;47.460;19.034;2022-12-24T15:03:42;7.35;;;1.42;;
41799;SDS011;27468;47.460;19.034;2022-12-24T15:06:08;3.17;;;1.00;;
41799;SDS011;27468;47.460;19.034;2022-12-24T15:08:37;4.90;;;1.35;;
41799;SDS011;27468;47.460;19.034;2022-12-24T15:11:04;4.28;;;1.40;;
41799;SDS011;27468;47.460;19.034;2022-12-24T15:16:11;3.92;;;1.42;;
41799;SDS011;27468;47.460;19.034;2022-12-24T15:18:46;3.67;;;1.40;;
41799;SDS011;27468;47.460;19.034;2022-12-24T15:21:22;4.00;;;1.58;;
41799;SDS011;27468;47.460;19.034;2022-12-24T15:23:52;3.40;;;1.40;;
41799;SDS011;27468;47.460;19.034;2022-12-24T15:28:53;4.07;;;1.70;;
41799;SDS011;27468;47.460;19.034;2022-12-24T15:31:21;4.45;;;1.92;;
41799;SDS011;27468;47.460;19.034;2022-12-24T15:33:52;4.00;;;1.52;;
41799;SDS011;27468;47.460;19.034;2022-12-24T15:36:24;4.30;;;1.75;;
41799;SDS011;27468;47.460;19.034;2022-12-24T15:38:53;4.05;;;1.90;;
41799;SDS011;27468;47.460;19.034;2022-12-24T15:41:25;3.63;;;1.40;;
41799;SDS011;27468;47.460;19.034;2022-12-24T15:43:54;4.15;;;1.30;;
41799;SDS011;27468;47.460;19.034;2022-12-24T15:48:54;3.90;;;1.50;;
41799;SDS011;27468;47.460;19.034;2022-12-24T15:51:29;3.83;;;1.42;;
41799;SDS011;27468;47.460;19.034;2022-12-24T15:54:00;4.55;;;1.40;;
41799;SDS011;27468;47.460;19.034;2022-12-24T15:59:11;5.95;;;1.90;;
41799;SDS011;27468;47.460;19.034;2022-12-24T16:01:37;4.72;;;1.73;;
41799;SDS011;27468;47.460;19.034;2022-12-24T16:04:12;3.65;;;1.70;;
41799;SDS011;27468;47.460;19.034;2022-12-24T16:09:36;3.05;;;1.70;;
41799;SDS011;27468;47.460;19.034;2022-12-24T16:12:11;4.13;;;1.50;;
41799;SDS011;27468;47.460;19.034;2022-12-24T16:14:44;6.43;;;1.80;;
41799;SDS011;27468;47.460;19.034;2022-12-24T16:17:20;4.13;;;1.67;;
41799;SDS011;27468;47.460;19.034;2022-12-24T16:19:52;5.65;;;2.20;;
41799;SDS011;27468;47.460;19.034;2022-12-24T16:22:20;5.30;;;1.92;;
41799;SDS011;27468;47.460;19.034;2022-12-24T16:25:20;4.75;;;2.13;;
41799;SDS011;27468;47.460;19.034;2022-12-24T16:27:52;4.13;;;1.92;;
41799;SDS011;27468;47.460;19.034;2022-12-24T16:30:18;3.72;;;1.90;;
41799;SDS011;27468;47.460;19.034;2022-12-24T16:32:45;4.95;;;2.60;;
41799;SDS011;27468;47.460;19.034;2022-12-24T16:35:45;4.18;;;2.33;;
41799;SDS011;27468;47.460;19.034;2022-12-24T16:38:03;93.72;;;39.40;;
41799;SDS011;27468;47.460;19.034;2022-12-24T16:40:28;28.23;;;13.88;;
41799;SDS011;27468;47.460;19.034;2022-12-24T16:42:57;21.45;;;10.63;;
41799;SDS011;27468;47.460;19.034;2022-12-24T16:45:41;14.38;;;7.50;;
41799;SDS011;27468;47.460;19.034;2022-12-24T16:48:10;10.00;;;5.50;;
41799;SDS011;27468;47.460;19.034;2022-12-24T16:50:43;9.40;;;5.68;;
41799;SDS011;27468;47.460;19.034;2022-12-24T16:53:11;8.90;;;5.97;;
41799;SDS011;27468;47.460;19.034;2022-12-24T16:55:38;14.43;;;9.25;;
41799;SDS011;27468;47.460;19.034;2022-12-24T16:58:03;19.90;;;10.88;;
41799;SDS011;27468;47.460;19.034;2022-12-24T17:00:29;12.23;;;6.30;;
41799;SDS011;27468;47.460;19.034;2022-12-24T17:02:54;8.35;;;4.53;;
41799;SDS011;27468;47.460;19.034;2022-12-24T17:05:20;8.05;;;3.78;;
41799;SDS011;27468;47.460;19.034;2022-12-24T17:07:48;8.43;;;4.90;;